Mission Home, Virginia
Current Conditions -  °F | °C
As of 11:53 AM on Friday 24 Oct 2014 (Local Time) from KCHO Reporting Station
Broken Clouds Broken Clouds  
Wind Chill: 61°   Ceiling: 20000
Heat Index: 61°   Visibility: 10mi
Dew Point: 39°   Wind: 9mph
Humidity: 44%   Direction: 340°NNW
Pressure: 30.01"   Gusts: NA
Location:  38.2046°N, 78.6094°W
Report Text: KCHO 241553Z 34008KT 10SM BKN200 16/04 A3001 RMK AO2 SLP158 T01610039 $
Loading
Personal Weather Stations






























Interactive Weather Map
Tropical Storm Tracking
New forecast layout! Learn more

10-Day Weather Forecast

Advertisements
Track Severe Weather on mobile